Drummond, Montana
Current Conditions -  °F | °C
As of 1:53 AM on Wednesday 26 Nov 2014 (Local Time) from KMSO Reporting Station
Light Snow Light Snow  
Wind Chill: 32°   Ceiling: 1700
Heat Index: 32°   Visibility: 1mi
Dew Point: 32°   Wind: 0mph
Humidity: 100%   Direction: NA
Pressure: 30.14"   Gusts: NA
Location:  46.67°N, 113.15°W
Report Text: KMSO 260853Z AUTO 00000KT 1SM -SN BR VV017 00/00 A3014 RMK AO2 SLP232 P0003 60010 T00000000 58005 $
Loading
Personal Weather Stations






























Interactive Weather Map New forecast layout! Learn more

10-Day Weather Forecast

Advertisements
Track Severe Weather on mobile